ΕΜΥ, Εθνική Μετεωρολογική Υπηρεσία - Δελτία Καιρού, Προγνώσεις

ΑΕΡΟΝΑΥΤΙΛΙΑ

GREEK AIRPORTS CODES

LGSY 191220Z 06013KT 9999 FEW018 SCT025 10/01 Q1022 RMK SCT080=

EUROPEAN AIRPORTS CODES

LFPO 191230Z 02010KT 350V050 9999 FEW022 06/02 Q1040 NOSIG=